sensor_id;sensor_type;location;lat;lon;timestamp;pressure;altitude;pressure_sealevel;temperature;humidity
16544;BME280;8384;47.996;7.786;2022-12-16T00:01:58;97550.06;;;-3.11;100.00
16544;BME280;8384;47.996;7.786;2022-12-16T00:04:23;97547.81;;;-3.14;100.00
16544;BME280;8384;47.996;7.786;2022-12-16T00:06:49;97544.13;;;-3.07;100.00
16544;BME280;8384;47.996;7.786;2022-12-16T00:09:14;97538.78;;;-3.07;100.00
16544;BME280;8384;47.996;7.786;2022-12-16T00:11:39;97542.91;;;-3.04;100.00
16544;BME280;8384;47.996;7.786;2022-12-16T00:14:04;97551.31;;;-3.14;100.00
16544;BME280;8384;47.996;7.786;2022-12-16T00:16:30;97534.44;;;-3.21;100.00
16544;BME280;8384;47.996;7.786;2022-12-16T00:18:55;97540.41;;;-3.19;100.00
16544;BME280;8384;47.996;7.786;2022-12-16T00:21:21;97526.84;;;-3.11;100.00
16544;BME280;8384;47.996;7.786;2022-12-16T00:23:47;97563.91;;;-2.74;100.00
16544;BME280;8384;47.996;7.786;2022-12-16T00:26:12;97558.56;;;-2.81;100.00
16544;BME280;8384;47.996;7.786;2022-12-16T00:28:39;97548.66;;;-2.80;100.00
16544;BME280;8384;47.996;7.786;2022-12-16T00:31:05;97543.72;;;-2.83;100.00
16544;BME280;8384;47.996;7.786;2022-12-16T00:33:30;97538.38;;;-2.83;100.00
16544;BME280;8384;47.996;7.786;2022-12-16T00:35:57;97540.25;;;-2.71;100.00
16544;BME280;8384;47.996;7.786;2022-12-16T00:38:24;97537.16;;;-2.74;100.00
16544;BME280;8384;47.996;7.786;2022-12-16T00:40:50;97535.50;;;-2.75;100.00
16544;BME280;8384;47.996;7.786;2022-12-16T00:43:15;97542.50;;;-2.74;100.00
16544;BME280;8384;47.996;7.786;2022-12-16T00:45:40;97532.44;;;-2.52;100.00
16544;BME280;8384;47.996;7.786;2022-12-16T00:48:06;97475.88;;;-2.96;100.00
16544;BME280;8384;47.996;7.786;2022-12-16T00:50:32;97512.66;;;-2.64;100.00
16544;BME280;8384;47.996;7.786;2022-12-16T00:52:58;97520.50;;;-2.76;100.00
16544;BME280;8384;47.996;7.786;2022-12-16T00:55:24;97538.78;;;-2.60;100.00
16544;BME280;8384;47.996;7.786;2022-12-16T00:57:49;97552.81;;;-2.44;100.00
16544;BME280;8384;47.996;7.786;2022-12-16T01:00:16;97556.50;;;-2.45;100.00
16544;BME280;8384;47.996;7.786;2022-12-16T01:02:44;97548.06;;;-2.42;100.00
16544;BME280;8384;47.996;7.786;2022-12-16T01:05:11;97557.28;;;-2.38;100.00
16544;BME280;8384;47.996;7.786;2022-12-16T01:07:37;97558.16;;;-2.44;100.00
16544;BME280;8384;47.996;7.786;2022-12-16T01:10:04;97564.53;;;-2.45;100.00
16544;BME280;8384;47.996;7.786;2022-12-16T01:12:30;97571.72;;;-2.59;100.00
16544;BME280;8384;47.996;7.786;2022-12-16T01:14:56;97573.34;;;-2.72;100.00
16544;BME280;8384;47.996;7.786;2022-12-16T01:17:21;97584.69;;;-2.69;100.00
16544;BME280;8384;47.996;7.786;2022-12-16T01:19:46;97575.63;;;-2.75;100.00
16544;BME280;8384;47.996;7.786;2022-12-16T01:22:12;97584.88;;;-2.51;100.00
16544;BME280;8384;47.996;7.786;2022-12-16T01:24:38;97580.56;;;-2.59;100.00
16544;BME280;8384;47.996;7.786;2022-12-16T01:27:03;97576.25;;;-2.80;100.00
16544;BME280;8384;47.996;7.786;2022-12-16T01:29:28;97586.13;;;-2.60;100.00
16544;BME280;8384;47.996;7.786;2022-12-16T01:31:54;97590.88;;;-2.69;100.00
16544;BME280;8384;47.996;7.786;2022-12-16T01:34:19;97571.28;;;-2.96;100.00
16544;BME280;8384;47.996;7.786;2022-12-16T01:36:44;97597.84;;;-2.88;100.00
16544;BME280;8384;47.996;7.786;2022-12-16T01:39:10;97588.16;;;-2.82;100.00
16544;BME280;8384;47.996;7.786;2022-12-16T01:41:36;97604.00;;;-2.88;100.00
16544;BME280;8384;47.996;7.786;2022-12-16T01:44:19;97577.00;;;-3.13;100.00
16544;BME280;8384;47.996;7.786;2022-12-16T01:46:49;97600.50;;;-2.95;100.00
16544;BME280;8384;47.996;7.786;2022-12-16T01:51:48;97612.00;;;-2.94;100.00
16544;BME280;8384;47.996;7.786;2022-12-16T01:54:18;97615.28;;;-3.06;100.00
16544;BME280;8384;47.996;7.786;2022-12-16T01:56:48;97609.56;;;-2.96;100.00
16544;BME280;8384;47.996;7.786;2022-12-16T01:59:16;97621.91;;;-2.81;100.00
16544;BME280;8384;47.996;7.786;2022-12-16T02:01:42;97628.72;;;-2.79;100.00
16544;BME280;8384;47.996;7.786;2022-12-16T02:04:07;97606.44;;;-2.99;100.00
16544;BME280;8384;47.996;7.786;2022-12-16T02:06:33;97611.81;;;-2.93;100.00
16544;BME280;8384;47.996;7.786;2022-12-16T02:09:01;97631.97;;;-2.90;100.00
16544;BME280;8384;47.996;7.786;2022-12-16T02:14:57;97619.44;;;-2.76;100.00
16544;BME280;8384;47.996;7.786;2022-12-16T02:17:47;97623.16;;;-2.84;100.00
16544;BME280;8384;47.996;7.786;2022-12-16T02:20:29;97629.53;;;-2.78;100.00
16544;BME280;8384;47.996;7.786;2022-12-16T02:31:43;97648.06;;;-2.70;100.00
16544;BME280;8384;47.996;7.786;2022-12-16T02:34:29;97650.13;;;-2.72;100.00
16544;BME280;8384;47.996;7.786;2022-12-16T02:37:23;97650.13;;;-2.79;100.00
16544;BME280;8384;47.996;7.786;2022-12-16T02:40:00;97662.25;;;-2.63;100.00
16544;BME280;8384;47.996;7.786;2022-12-16T02:42:33;97660.59;;;-2.77;100.00
16544;BME280;8384;47.996;7.786;2022-12-16T02:47:30;97666.19;;;-2.65;100.00
16544;BME280;8384;47.996;7.786;2022-12-16T02:49:56;97666.97;;;-2.72;100.00
16544;BME280;8384;47.996;7.786;2022-12-16T02:52:31;97672.72;;;-2.81;100.00
16544;BME280;8384;47.996;7.786;2022-12-16T02:55:03;97678.91;;;-2.81;100.00
16544;BME280;8384;47.996;7.786;2022-12-16T02:57:49;97661.75;;;-3.07;100.00
16544;BME280;8384;47.996;7.786;2022-12-16T03:00:21;97661.00;;;-2.87;100.00
16544;BME280;8384;47.996;7.786;2022-12-16T03:03:00;97680.13;;;-2.77;100.00
16544;BME280;8384;47.996;7.786;2022-12-16T03:05:33;97684.88;;;-2.79;100.00
16544;BME280;8384;47.996;7.786;2022-12-16T03:08:11;97683.25;;;-2.73;100.00
16544;BME280;8384;47.996;7.786;2022-12-16T03:10:43;97684.50;;;-2.69;100.00
16544;BME280;8384;47.996;7.786;2022-12-16T03:13:10;97688.81;;;-2.68;100.00
16544;BME280;8384;47.996;7.786;2022-12-16T03:15:38;97690.88;;;-2.63;100.00
16544;BME280;8384;47.996;7.786;2022-12-16T03:18:07;97681.97;;;-2.84;100.00
16544;BME280;8384;47.996;7.786;2022-12-16T03:20:42;97692.06;;;-2.79;100.00
16544;BME280;8384;47.996;7.786;2022-12-16T03:23:12;97694.72;;;-2.86;100.00
16544;BME280;8384;47.996;7.786;2022-12-16T03:25:42;97704.19;;;-2.77;100.00
16544;BME280;8384;47.996;7.786;2022-12-16T03:28:34;97707.50;;;-2.75;100.00
16544;BME280;8384;47.996;7.786;2022-12-16T03:31:09;97705.91;;;-2.69;100.00
16544;BME280;8384;47.996;7.786;2022-12-16T03:33:44;97711.66;;;-2.59;100.00
16544;BME280;8384;47.996;7.786;2022-12-16T03:36:16;97712.44;;;-2.72;100.00
16544;BME280;8384;47.996;7.786;2022-12-16T03:38:45;97677.66;;;-2.92;100.00
16544;BME280;8384;47.996;7.786;2022-12-16T03:41:12;97717.38;;;-2.82;100.00
16544;BME280;8384;47.996;7.786;2022-12-16T03:43:38;97692.03;;;-2.93;100.00
16544;BME280;8384;47.996;7.786;2022-12-16T03:46:05;97713.25;;;-2.78;100.00
16544;BME280;8384;47.996;7.786;2022-12-16T03:48:32;97717.97;;;-2.87;100.00
16544;BME280;8384;47.996;7.786;2022-12-16T03:50:58;97724.72;;;-2.91;100.00
16544;BME280;8384;47.996;7.786;2022-12-16T03:53:23;97722.31;;;-2.79;100.00
16544;BME280;8384;47.996;7.786;2022-12-16T03:55:52;97720.22;;;-2.90;100.00
16544;BME280;8384;47.996;7.786;2022-12-16T03:58:17;97724.31;;;-2.94;100.00
16544;BME280;8384;47.996;7.786;2022-12-16T04:00:42;97706.31;;;-3.21;100.00
16544;BME280;8384;47.996;7.786;2022-12-16T04:03:08;97729.22;;;-3.05;100.00
16544;BME280;8384;47.996;7.786;2022-12-16T04:05:33;97737.44;;;-2.99;100.00
16544;BME280;8384;47.996;7.786;2022-12-16T04:07:58;97732.75;;;-2.91;100.00
16544;BME280;8384;47.996;7.786;2022-12-16T04:10:24;97729.50;;;-2.86;100.00
16544;BME280;8384;47.996;7.786;2022-12-16T04:13:08;97755.63;;;-2.81;100.00
16544;BME280;8384;47.996;7.786;2022-12-16T04:15:52;97757.69;;;-2.83;100.00
16544;BME280;8384;47.996;7.786;2022-12-16T04:18:53;97759.94;;;-2.87;100.00
16544;BME280;8384;47.996;7.786;2022-12-16T04:21:37;97728.28;;;-3.25;100.00
16544;BME280;8384;47.996;7.786;2022-12-16T04:24:27;97757.41;;;-3.02;100.00
16544;BME280;8384;47.996;7.786;2022-12-16T04:26:53;97771.00;;;-2.97;100.00
16544;BME280;8384;47.996;7.786;2022-12-16T04:29:45;97542.31;;;-4.45;100.00
16544;BME280;8384;47.996;7.786;2022-12-16T04:32:29;97768.34;;;-2.90;100.00
16544;BME280;8384;47.996;7.786;2022-12-16T04:35:33;97767.50;;;-2.91;100.00
16544;BME280;8384;47.996;7.786;2022-12-16T04:38:17;97771.41;;;-2.93;100.00
16544;BME280;8384;47.996;7.786;2022-12-16T04:41:01;97758.16;;;-3.15;100.00
16544;BME280;8384;47.996;7.786;2022-12-16T04:43:45;97774.59;;;-3.11;100.00
16544;BME280;8384;47.996;7.786;2022-12-16T04:46:28;97782.47;;;-3.03;100.00
16544;BME280;8384;47.996;7.786;2022-12-16T04:49:12;97776.91;;;-3.02;100.00
16544;BME280;8384;47.996;7.786;2022-12-16T04:51:56;97773.72;;;-3.25;100.00
16544;BME280;8384;47.996;7.786;2022-12-16T04:54:40;97801.59;;;-3.06;100.00
16544;BME280;8384;47.996;7.786;2022-12-16T04:57:24;97787.63;;;-3.02;100.00
16544;BME280;8384;47.996;7.786;2022-12-16T05:00:09;97788.38;;;-3.14;100.00
16544;BME280;8384;47.996;7.786;2022-12-16T05:02:53;97778.53;;;-3.07;100.00
16544;BME280;8384;47.996;7.786;2022-12-16T05:05:37;97776.63;;;-3.20;100.00
16544;BME280;8384;47.996;7.786;2022-12-16T05:08:21;97804.50;;;-3.01;100.00
16544;BME280;8384;47.996;7.786;2022-12-16T05:11:05;97805.31;;;-3.01;100.00
16544;BME280;8384;47.996;7.786;2022-12-16T05:13:49;97806.91;;;-3.13;100.00
16544;BME280;8384;47.996;7.786;2022-12-16T05:16:33;97817.63;;;-3.06;100.00
16544;BME280;8384;47.996;7.786;2022-12-16T05:19:16;97815.38;;;-3.03;100.00
16544;BME280;8384;47.996;7.786;2022-12-16T05:22:05;97825.66;;;-3.06;100.00
16544;BME280;8384;47.996;7.786;2022-12-16T05:24:49;97824.56;;;-3.19;100.00
16544;BME280;8384;47.996;7.786;2022-12-16T05:27:33;97832.97;;;-3.22;100.00
16544;BME280;8384;47.996;7.786;2022-12-16T05:30:17;97837.72;;;-3.17;100.00
16544;BME280;8384;47.996;7.786;2022-12-16T05:33:01;97816.75;;;-3.13;100.00
16544;BME280;8384;47.996;7.786;2022-12-16T05:35:45;97846.00;;;-3.05;100.00
16544;BME280;8384;47.996;7.786;2022-12-16T05:38:29;97824.84;;;-3.35;100.00
16544;BME280;8384;47.996;7.786;2022-12-16T05:41:13;97858.88;;;-3.16;100.00
16544;BME280;8384;47.996;7.786;2022-12-16T05:43:57;97859.81;;;-3.02;100.00
16544;BME280;8384;47.996;7.786;2022-12-16T05:46:41;97862.47;;;-3.02;100.00
16544;BME280;8384;47.996;7.786;2022-12-16T05:49:25;97849.56;;;-3.26;100.00
16544;BME280;8384;47.996;7.786;2022-12-16T05:52:09;97866.34;;;-3.11;100.00
16544;BME280;8384;47.996;7.786;2022-12-16T05:54:53;97874.38;;;-3.11;100.00
16544;BME280;8384;47.996;7.786;2022-12-16T05:57:37;97866.53;;;-3.12;100.00
16544;BME280;8384;47.996;7.786;2022-12-16T06:00:21;97881.25;;;-3.23;100.00
16544;BME280;8384;47.996;7.786;2022-12-16T06:03:05;97877.94;;;-3.25;100.00
16544;BME280;8384;47.996;7.786;2022-12-16T06:05:49;97870.38;;;-3.43;100.00
16544;BME280;8384;47.996;7.786;2022-12-16T06:08:33;97884.50;;;-3.28;100.00
16544;BME280;8384;47.996;7.786;2022-12-16T06:11:17;97894.13;;;-3.34;100.00
16544;BME280;8384;47.996;7.786;2022-12-16T06:14:01;97880.28;;;-3.44;100.00
16544;BME280;8384;47.996;7.786;2022-12-16T06:16:45;97905.31;;;-3.23;100.00
16544;BME280;8384;47.996;7.786;2022-12-16T06:19:29;97912.31;;;-3.22;100.00
16544;BME280;8384;47.996;7.786;2022-12-16T06:22:13;97915.56;;;-3.27;100.00
16544;BME280;8384;47.996;7.786;2022-12-16T06:24:57;97911.19;;;-3.35;100.00
16544;BME280;8384;47.996;7.786;2022-12-16T06:27:41;97928.88;;;-3.34;100.00
16544;BME280;8384;47.996;7.786;2022-12-16T06:30:25;97889.25;;;-3.52;100.00
16544;BME280;8384;47.996;7.786;2022-12-16T06:33:09;97942.72;;;-3.23;100.00
16544;BME280;8384;47.996;7.786;2022-12-16T06:35:53;97937.13;;;-3.28;100.00
16544;BME280;8384;47.996;7.786;2022-12-16T06:38:37;97937.44;;;-3.17;100.00
16544;BME280;8384;47.996;7.786;2022-12-16T06:41:21;97908.31;;;-3.33;100.00
16544;BME280;8384;47.996;7.786;2022-12-16T06:44:05;97957.91;;;-3.02;100.00
16544;BME280;8384;47.996;7.786;2022-12-16T06:46:49;97959.31;;;-3.06;100.00
16544;BME280;8384;47.996;7.786;2022-12-16T06:49:33;97944.84;;;-3.19;100.00
16544;BME280;8384;47.996;7.786;2022-12-16T06:52:17;97966.56;;;-3.00;100.00
16544;BME280;8384;47.996;7.786;2022-12-16T06:55:01;97977.66;;;-3.03;100.00
16544;BME280;8384;47.996;7.786;2022-12-16T06:57:45;97956.66;;;-3.28;100.00
16544;BME280;8384;47.996;7.786;2022-12-16T07:00:29;97981.84;;;-3.16;100.00
16544;BME280;8384;47.996;7.786;2022-12-16T07:03:13;97983.44;;;-3.21;100.00
16544;BME280;8384;47.996;7.786;2022-12-16T07:05:57;97983.78;;;-3.31;100.00
16544;BME280;8384;47.996;7.786;2022-12-16T07:08:41;97985.44;;;-3.30;100.00
16544;BME280;8384;47.996;7.786;2022-12-16T07:11:26;97988.44;;;-3.40;100.00
16544;BME280;8384;47.996;7.786;2022-12-16T07:14:10;98013.59;;;-3.27;100.00
16544;BME280;8384;47.996;7.786;2022-12-16T07:16:59;98018.53;;;-3.09;100.00
16544;BME280;8384;47.996;7.786;2022-12-16T07:19:42;98009.16;;;-3.20;100.00
16544;BME280;8384;47.996;7.786;2022-12-16T07:22:26;98017.75;;;-3.03;100.00
16544;BME280;8384;47.996;7.786;2022-12-16T07:25:10;98014.78;;;-3.15;100.00
16544;BME280;8384;47.996;7.786;2022-12-16T07:27:54;98040.84;;;-2.95;100.00
16544;BME280;8384;47.996;7.786;2022-12-16T07:30:38;98013.75;;;-3.14;100.00
16544;BME280;8384;47.996;7.786;2022-12-16T07:33:22;98036.16;;;-2.93;100.00
16544;BME280;8384;47.996;7.786;2022-12-16T07:36:06;98044.44;;;-2.88;100.00
16544;BME280;8384;47.996;7.786;2022-12-16T07:38:50;98051.44;;;-2.87;100.00
16544;BME280;8384;47.996;7.786;2022-12-16T07:41:34;98054.09;;;-2.87;100.00
16544;BME280;8384;47.996;7.786;2022-12-16T07:44:18;98063.59;;;-2.84;100.00
16544;BME280;8384;47.996;7.786;2022-12-16T07:47:02;98032.25;;;-3.12;100.00
16544;BME280;8384;47.996;7.786;2022-12-16T07:50:06;98070.41;;;-2.82;100.00
16544;BME280;8384;47.996;7.786;2022-12-16T07:52:57;98071.06;;;-2.80;100.00
16544;BME280;8384;47.996;7.786;2022-12-16T07:55:43;98082.81;;;-2.74;100.00
16544;BME280;8384;47.996;7.786;2022-12-16T07:58:27;98093.41;;;-2.66;100.00
16544;BME280;8384;47.996;7.786;2022-12-16T08:01:11;98083.06;;;-2.91;100.00
16544;BME280;8384;47.996;7.786;2022-12-16T08:03:55;98091.56;;;-2.87;100.00
16544;BME280;8384;47.996;7.786;2022-12-16T08:06:39;98095.03;;;-2.87;100.00
16544;BME280;8384;47.996;7.786;2022-12-16T08:09:22;98101.63;;;-2.89;100.00
16544;BME280;8384;47.996;7.786;2022-12-16T08:12:06;98104.59;;;-2.77;100.00
16544;BME280;8384;47.996;7.786;2022-12-16T08:14:51;98103.38;;;-2.75;100.00
16544;BME280;8384;47.996;7.786;2022-12-16T08:17:35;98106.63;;;-2.79;100.00
16544;BME280;8384;47.996;7.786;2022-12-16T08:20:19;98095.03;;;-3.08;100.00
16544;BME280;8384;47.996;7.786;2022-12-16T08:23:03;98110.44;;;-3.10;100.00
16544;BME280;8384;47.996;7.786;2022-12-16T08:25:47;98107.69;;;-3.17;100.00
16544;BME280;8384;47.996;7.786;2022-12-16T08:28:31;98128.66;;;-2.99;100.00
16544;BME280;8384;47.996;7.786;2022-12-16T08:31:15;98121.59;;;-3.07;100.00
16544;BME280;8384;47.996;7.786;2022-12-16T08:33:59;98116.53;;;-3.17;100.00
16544;BME280;8384;47.996;7.786;2022-12-16T08:36:43;98145.47;;;-3.05;100.00
16544;BME280;8384;47.996;7.786;2022-12-16T08:39:27;98110.31;;;-3.24;100.00
16544;BME280;8384;47.996;7.786;2022-12-16T08:42:11;98148.03;;;-2.97;100.00
16544;BME280;8384;47.996;7.786;2022-12-16T08:44:55;98148.47;;;-2.93;99.32
16544;BME280;8384;47.996;7.786;2022-12-16T08:47:39;98159.94;;;-2.78;98.65
16544;BME280;8384;47.996;7.786;2022-12-16T08:50:23;98163.13;;;-2.67;98.69
16544;BME280;8384;47.996;7.786;2022-12-16T08:53:07;98175.38;;;-2.58;98.04
16544;BME280;8384;47.996;7.786;2022-12-16T08:55:51;98174.91;;;-2.62;97.90
16544;BME280;8384;47.996;7.786;2022-12-16T08:58:35;98181.22;;;-2.48;97.22
16544;BME280;8384;47.996;7.786;2022-12-16T09:01:18;98155.75;;;-2.65;97.41
16544;BME280;8384;47.996;7.786;2022-12-16T09:04:02;98176.09;;;-2.49;98.67
16544;BME280;8384;47.996;7.786;2022-12-16T09:06:47;98182.81;;;-2.32;96.75
16544;BME280;8384;47.996;7.786;2022-12-16T09:09:30;98151.03;;;-2.42;95.97
16544;BME280;8384;47.996;7.786;2022-12-16T09:12:15;98198.63;;;-2.37;95.03
16544;BME280;8384;47.996;7.786;2022-12-16T09:14:58;98184.53;;;-2.67;94.23
16544;BME280;8384;47.996;7.786;2022-12-16T09:17:42;98194.66;;;-2.63;93.31
16544;BME280;8384;47.996;7.786;2022-12-16T09:20:26;98202.53;;;-2.61;93.24
16544;BME280;8384;47.996;7.786;2022-12-16T09:23:10;98192.47;;;-2.96;93.93
16544;BME280;8384;47.996;7.786;2022-12-16T09:25:54;98206.94;;;-3.05;94.13
16544;BME280;8384;47.996;7.786;2022-12-16T09:28:38;98199.41;;;-3.17;94.92
16544;BME280;8384;47.996;7.786;2022-12-16T09:31:22;98214.34;;;-3.22;94.59
16544;BME280;8384;47.996;7.786;2022-12-16T09:34:06;98224.09;;;-3.29;95.36
16544;BME280;8384;47.996;7.786;2022-12-16T09:36:50;98224.66;;;-3.19;95.41
16544;BME280;8384;47.996;7.786;2022-12-16T09:39:34;98234.28;;;-3.25;93.64
16544;BME280;8384;47.996;7.786;2022-12-16T09:51:38;98239.63;;;-3.25;92.07
16544;BME280;8384;47.996;7.786;2022-12-16T09:54:26;98234.06;;;-3.08;92.51
16544;BME280;8384;47.996;7.786;2022-12-16T09:57:12;98242.81;;;-3.14;92.23
16544;BME280;8384;47.996;7.786;2022-12-16T10:00:00;98244.38;;;-3.35;92.00
16544;BME280;8384;47.996;7.786;2022-12-16T10:02:47;98210.66;;;-3.66;92.99
16544;BME280;8384;47.996;7.786;2022-12-16T10:05:57;98256.44;;;-3.54;93.50
16544;BME280;8384;47.996;7.786;2022-12-16T10:08:51;98246.66;;;-3.62;94.27
16544;BME280;8384;47.996;7.786;2022-12-16T10:11:48;98238.38;;;-3.67;94.92
16544;BME280;8384;47.996;7.786;2022-12-16T10:14:52;98251.31;;;-3.41;93.80
16544;BME280;8384;47.996;7.786;2022-12-16T10:17:40;98241.72;;;-3.05;93.45
16544;BME280;8384;47.996;7.786;2022-12-16T10:20:43;98232.94;;;-2.99;91.12
16544;BME280;8384;47.996;7.786;2022-12-16T10:23:51;98245.47;;;-2.99;91.19
16544;BME280;8384;47.996;7.786;2022-12-16T10:26:56;98241.34;;;-3.17;90.92
16544;BME280;8384;47.996;7.786;2022-12-16T10:29:45;98244.75;;;-3.23;92.07
16544;BME280;8384;47.996;7.786;2022-12-16T10:32:39;98248.00;;;-3.13;91.73
16544;BME280;8384;47.996;7.786;2022-12-16T10:35:28;98247.53;;;-3.32;92.66
16544;BME280;8384;47.996;7.786;2022-12-16T10:38:19;98252.41;;;-3.20;92.44
16544;BME280;8384;47.996;7.786;2022-12-16T10:41:05;98241.06;;;-3.37;92.46
16544;BME280;8384;47.996;7.786;2022-12-16T10:43:50;98250.94;;;-3.08;92.81
16544;BME280;8384;47.996;7.786;2022-12-16T10:46:36;98243.22;;;-3.33;91.63
16544;BME280;8384;47.996;7.786;2022-12-16T10:49:20;98222.38;;;-3.37;92.68
16544;BME280;8384;47.996;7.786;2022-12-16T10:52:04;98239.31;;;-3.15;92.62
16544;BME280;8384;47.996;7.786;2022-12-16T10:54:58;98192.03;;;-3.29;92.41
16544;BME280;8384;47.996;7.786;2022-12-16T10:58:01;98264.47;;;-2.94;92.39
16544;BME280;8384;47.996;7.786;2022-12-16T11:00:51;98261.44;;;-2.91;94.27
16544;BME280;8384;47.996;7.786;2022-12-16T11:03:37;98258.28;;;-2.80;92.95
16544;BME280;8384;47.996;7.786;2022-12-16T11:06:38;98257.88;;;-2.77;91.50
16544;BME280;8384;47.996;7.786;2022-12-16T11:09:28;98245.69;;;-2.64;91.05
16544;BME280;8384;47.996;7.786;2022-12-16T11:12:19;98234.03;;;-2.78;90.18
16544;BME280;8384;47.996;7.786;2022-12-16T11:18:07;98258.47;;;-2.45;90.72
16544;BME280;8384;47.996;7.786;2022-12-16T11:21:15;98218.38;;;-2.96;91.01
16544;BME280;8384;47.996;7.786;2022-12-16T11:24:16;98268.78;;;-2.78;93.51
16544;BME280;8384;47.996;7.786;2022-12-16T11:27:24;98270.66;;;-2.79;92.62
16544;BME280;8384;47.996;7.786;2022-12-16T11:32:58;98271.59;;;-2.50;93.04
16544;BME280;8384;47.996;7.786;2022-12-16T11:35:46;98278.59;;;-2.49;92.50
16544;BME280;8384;47.996;7.786;2022-12-16T11:38:52;98279.50;;;-2.42;93.01
16544;BME280;8384;47.996;7.786;2022-12-16T11:41:39;98278.25;;;-2.24;92.58
16544;BME280;8384;47.996;7.786;2022-12-16T11:44:57;98273.41;;;-2.35;91.80
16544;BME280;8384;47.996;7.786;2022-12-16T11:47:44;98225.97;;;-2.63;91.82
16544;BME280;8384;47.996;7.786;2022-12-16T11:50:31;98283.84;;;-2.19;90.63
16544;BME280;8384;47.996;7.786;2022-12-16T11:53:25;98280.75;;;-2.01;89.82
16544;BME280;8384;47.996;7.786;2022-12-16T11:56:19;98279.53;;;-1.76;88.97
16544;BME280;8384;47.996;7.786;2022-12-16T11:59:15;98274.00;;;-1.68;87.78
16544;BME280;8384;47.996;7.786;2022-12-16T12:02:02;98297.56;;;-1.85;88.52
16544;BME280;8384;47.996;7.786;2022-12-16T12:04:48;98299.13;;;-1.98;88.68
16544;BME280;8384;47.996;7.786;2022-12-16T12:07:34;98301.66;;;-1.89;88.81
16544;BME280;8384;47.996;7.786;2022-12-16T12:13:50;98313.81;;;-1.65;88.42
16544;BME280;8384;47.996;7.786;2022-12-16T12:16:45;98310.28;;;-1.44;87.71
16544;BME280;8384;47.996;7.786;2022-12-16T12:22:37;98281.72;;;-1.58;88.82
16544;BME280;8384;47.996;7.786;2022-12-16T12:36:47;98317.66;;;-2.69;92.99
16544;BME280;8384;47.996;7.786;2022-12-16T12:39:44;98323.22;;;-2.71;93.15
16544;BME280;8384;47.996;7.786;2022-12-16T12:42:36;98332.69;;;-2.68;92.92
16544;BME280;8384;47.996;7.786;2022-12-16T12:52:06;98337.13;;;-2.61;91.75
16544;BME280;8384;47.996;7.786;2022-12-16T12:57:42;98334.03;;;-2.28;92.43
16544;BME280;8384;47.996;7.786;2022-12-16T13:00:30;98343.03;;;-1.92;91.77
16544;BME280;8384;47.996;7.786;2022-12-16T13:06:33;98350.84;;;-1.54;86.13
16544;BME280;8384;47.996;7.786;2022-12-16T13:09:33;98354.78;;;-1.71;86.93
16544;BME280;8384;47.996;7.786;2022-12-16T13:15:17;98348.00;;;-1.45;83.75
16544;BME280;8384;47.996;7.786;2022-12-16T13:20:47;98361.81;;;-1.70;84.85
16544;BME280;8384;47.996;7.786;2022-12-16T13:23:37;98360.91;;;-1.56;83.78
16544;BME280;8384;47.996;7.786;2022-12-16T13:26:30;98365.69;;;-1.51;84.10
16544;BME280;8384;47.996;7.786;2022-12-16T13:29:29;98372.91;;;-1.52;82.99
16544;BME280;8384;47.996;7.786;2022-12-16T13:32:26;98371.69;;;-1.92;83.90
16544;BME280;8384;47.996;7.786;2022-12-16T13:38:17;98297.31;;;-2.49;82.96
16544;BME280;8384;47.996;7.786;2022-12-16T13:44:09;98376.53;;;-2.54;85.19
16544;BME280;8384;47.996;7.786;2022-12-16T13:46:54;98391.56;;;-2.68;87.08
16544;BME280;8384;47.996;7.786;2022-12-16T13:55:38;98394.16;;;-2.75;87.22
16544;BME280;8384;47.996;7.786;2022-12-16T13:58:46;98403.28;;;-2.54;87.49
16544;BME280;8384;47.996;7.786;2022-12-16T14:01:52;98414.06;;;-2.48;85.87
16544;BME280;8384;47.996;7.786;2022-12-16T14:04:39;98418.03;;;-2.59;85.77
16544;BME280;8384;47.996;7.786;2022-12-16T14:07:26;98408.47;;;-2.53;85.48
16544;BME280;8384;47.996;7.786;2022-12-16T14:10:35;98434.94;;;-2.58;85.27
16544;BME280;8384;47.996;7.786;2022-12-16T14:13:32;98431.34;;;-2.65;86.33
16544;BME280;8384;47.996;7.786;2022-12-16T14:16:39;98436.03;;;-2.52;86.68
16544;BME280;8384;47.996;7.786;2022-12-16T14:19:33;98434.38;;;-2.38;86.82
16544;BME280;8384;47.996;7.786;2022-12-16T14:22:55;98451.38;;;-2.46;85.52
16544;BME280;8384;47.996;7.786;2022-12-16T14:25:41;98454.75;;;-2.67;87.64
16544;BME280;8384;47.996;7.786;2022-12-16T14:28:38;98464.63;;;-2.83;88.38
16544;BME280;8384;47.996;7.786;2022-12-16T14:31:34;98435.38;;;-2.69;89.01
16544;BME280;8384;47.996;7.786;2022-12-16T14:34:19;98454.69;;;-2.59;88.96
16544;BME280;8384;47.996;7.786;2022-12-16T14:37:28;98454.69;;;-2.29;87.12
16544;BME280;8384;47.996;7.786;2022-12-16T14:43:10;98467.34;;;-2.53;87.84
16544;BME280;8384;47.996;7.786;2022-12-16T14:45:55;98452.19;;;-2.46;88.36
16544;BME280;8384;47.996;7.786;2022-12-16T14:48:39;98476.00;;;-2.36;88.86
16544;BME280;8384;47.996;7.786;2022-12-16T14:51:30;98475.34;;;-2.38;89.57
16544;BME280;8384;47.996;7.786;2022-12-16T14:57:10;98454.41;;;-2.64;87.64
16544;BME280;8384;47.996;7.786;2022-12-16T15:03:38;98493.53;;;-2.48;88.53
16544;BME280;8384;47.996;7.786;2022-12-16T15:05:56;98498.25;;;-2.50;89.09
16544;BME280;8384;47.996;7.786;2022-12-16T15:08:48;98500.63;;;-2.56;89.04
16544;BME280;8384;47.996;7.786;2022-12-16T15:11:34;98496.91;;;-2.69;90.05
16544;BME280;8384;47.996;7.786;2022-12-16T15:14:26;98502.38;;;-2.63;89.06
16544;BME280;8384;47.996;7.786;2022-12-16T15:17:26;98508.47;;;-2.69;90.45
16544;BME280;8384;47.996;7.786;2022-12-16T15:20:22;98511.66;;;-2.74;90.30
16544;BME280;8384;47.996;7.786;2022-12-16T15:23:21;98516.09;;;-2.81;91.38
16544;BME280;8384;47.996;7.786;2022-12-16T15:26:06;98525.84;;;-2.88;91.58
16544;BME280;8384;47.996;7.786;2022-12-16T15:28:51;98509.00;;;-3.12;91.21
16544;BME280;8384;47.996;7.786;2022-12-16T15:31:37;98529.47;;;-3.04;91.56
16544;BME280;8384;47.996;7.786;2022-12-16T15:34:26;98537.69;;;-3.06;92.80
16544;BME280;8384;47.996;7.786;2022-12-16T15:37:27;98542.59;;;-2.94;93.47
16544;BME280;8384;47.996;7.786;2022-12-16T15:40:33;98548.38;;;-2.82;91.73
16544;BME280;8384;47.996;7.786;2022-12-16T15:43:25;98559.00;;;-2.74;92.17
16544;BME280;8384;47.996;7.786;2022-12-16T15:46:21;98534.41;;;-3.16;90.55
16544;BME280;8384;47.996;7.786;2022-12-16T15:49:15;98538.56;;;-3.13;92.84
16544;BME280;8384;47.996;7.786;2022-12-16T15:55:30;98575.13;;;-2.82;91.15
16544;BME280;8384;47.996;7.786;2022-12-16T15:58:47;98580.91;;;-2.94;93.56
16544;BME280;8384;47.996;7.786;2022-12-16T16:01:38;98589.38;;;-2.90;92.17